aviador You're here:

RODN Decoded Metar

KADENA in JAPAN
Report Time2018-05-23 15:56:00
UTC Time2018-05-23 16:35:16
Flight Rules vfr VFR
Wind310° at 05 kt
W.Decomp.*RWY 23: 0.5 kt HW 5.0 kt RCW
W.Rank310° ranks 28
Current wind is below 310° avg. (9.2)
Visibility9999 m
Phenomena:N/A
Clouds:N/A
Expected CloudBase > 2,000 ft AGL from Temp-Dew spread
CeilingNone
Temp23°C (ISA +8)
Dew Point18°C (74% RH)
QNH1009 hPa
Density Alt1,522 ft
Elevation148 ft
Report Wrong Elevation
Raw Report
RODN 231556Z AUTO 31005KT 10SM CLR 23/18 A2981 RMK AO2 SLP100
T02270178=

Extra information for RODN:More info

Metar Taf Metar & Taf Last 4 Metars F.Rules Stats Wind Profile Meteogram Temp Stats Airport Information Weather charts Add Link Nearby VenuesMetar ALERT Operation Metar Decoded Social comments